Time;durP1;ratioP1;P1;durP2;ratioP2;P2;SDS_P1;SDS_P2;PMS_P1;PMS_P2;Temp;Humidity;BMP_temperature;BMP_pressure;BME280_temperature;BME280_humidity;BME280_pressure;Samples;Min_cycle;Max_cycle;Signal;HPM_P1;HPM_P2
2022/04/28 00:01:54;;;;;;;7.43;6.82;;;;;;;;;;5073582;28;20067;-60
2022/04/28 00:04:19;;;;;;;5.78;5.38;;;;;;;;;;5074761;28;20047;-60
2022/04/28 00:06:45;;;;;;;6.32;5.82;;;;;;;;;;5073632;28;20675;-60
2022/04/28 00:09:10;;;;;;;6.43;5.93;;;;;;;;;;5075047;28;20036;-60
2022/04/28 00:11:36;;;;;;;6.25;5.75;;;;;;;;;;5073799;28;20028;-60
2022/04/28 00:14:01;;;;;;;6.30;5.88;;;;;;;;;;5072889;28;20058;-60
2022/04/28 00:16:27;;;;;;;7.63;7.13;;;;;;;;;;5068715;28;20409;-60
2022/04/28 00:18:53;;;;;;;6.88;6.38;;;;;;;;;;5070044;28;20632;-60
2022/04/28 00:21:18;;;;;;;6.50;6.03;;;;;;;;;;5077080;28;20028;-60
2022/04/28 00:23:44;;;;;;;6.25;5.85;;;;;;;;;;5074784;28;20579;-60
2022/04/28 00:26:10;;;;;;;7.15;6.65;;;;;;;;;;5073790;28;20044;-60
2022/04/28 00:28:35;;;;;;;7.32;6.82;;;;;;;;;;5072934;28;20035;-60
2022/04/28 00:31:00;;;;;;;8.25;7.63;;;;;;;;;;5074599;28;20034;-60
2022/04/28 00:33:27;;;;;;;7.32;6.82;;;;;;;;;;5070973;28;20033;-60
2022/04/28 00:35:53;;;;;;;8.40;7.80;;;;;;;;;;5072563;28;20020;-60
2022/04/28 00:38:18;;;;;;;7.32;6.82;;;;;;;;;;5069179;28;20123;-60
2022/04/28 00:40:44;;;;;;;7.50;6.90;;;;;;;;;;5072545;28;20064;-60
2022/04/28 00:43:18;;;;;;;7.93;7.43;;;;;;;;;;5077310;28;20044;-60
2022/04/28 00:45:44;;;;;;;7.85;7.28;;;;;;;;;;5070102;28;20035;-60
2022/04/28 00:50:57;;;;;;;6.70;6.20;;;;;;;;;;5073786;28;20132;-60
2022/04/28 00:53:26;;;;;;;8.25;7.65;;;;;;;;;;5074749;28;20040;-59
2022/04/28 00:55:51;;;;;;;8.90;8.30;;;;;;;;;;5075604;28;20105;-60
2022/04/28 00:58:18;;;;;;;8.93;8.32;;;;;;;;;;5079163;28;20067;-60
2022/04/28 01:00:44;;;;;;;8.95;8.35;;;;;;;;;;5075855;28;20036;-60
2022/04/28 01:03:11;;;;;;;9.27;8.68;;;;;;;;;;5077903;28;20660;-60
2022/04/28 01:05:36;;;;;;;9.63;8.93;;;;;;;;;;5076187;28;20028;-60
2022/04/28 01:08:01;;;;;;;9.43;8.82;;;;;;;;;;5075209;28;20039;-60
2022/04/28 01:10:27;;;;;;;9.10;8.50;;;;;;;;;;5076317;28;20047;-60
2022/04/28 01:12:52;;;;;;;9.38;8.68;;;;;;;;;;5078351;28;20054;-60
2022/04/28 01:15:17;;;;;;;8.93;8.32;;;;;;;;;;5075699;28;20028;-60
2022/04/28 01:17:43;;;;;;;10.20;9.50;;;;;;;;;;5074290;28;20063;-60
2022/04/28 01:20:08;;;;;;;8.43;7.82;;;;;;;;;;5074344;28;20119;-60
2022/04/28 01:22:34;;;;;;;7.38;6.88;;;;;;;;;;5077518;28;20039;-59
2022/04/28 01:25:07;;;;;;;9.75;9.07;;;;;;;;;;5074718;28;20032;-60
2022/04/28 01:27:33;;;;;;;9.45;8.85;;;;;;;;;;5077213;28;20120;-60
2022/04/28 01:29:59;;;;;;;9.70;9.10;;;;;;;;;;5076244;28;20043;-60
2022/04/28 01:32:25;;;;;;;9.50;8.85;;;;;;;;;;5075286;28;20020;-60
2022/04/28 01:34:51;;;;;;;10.23;9.63;;;;;;;;;;5075445;28;20046;-60
2022/04/28 01:37:17;;;;;;;11.95;11.13;;;;;;;;;;5076513;28;20036;-60
2022/04/28 01:39:43;;;;;;;10.63;9.93;;;;;;;;;;5075946;28;20036;-60
2022/04/28 01:42:09;;;;;;;10.52;9.82;;;;;;;;;;5073974;28;20025;-60
2022/04/28 01:44:34;;;;;;;9.13;8.52;;;;;;;;;;5074540;28;20060;-60
2022/04/28 01:47:00;;;;;;;8.07;7.47;;;;;;;;;;5073625;28;20017;-59
2022/04/28 01:49:25;;;;;;;8.50;7.55;;;;;;;;;;5076093;28;20037;-60
2022/04/28 01:54:57;;;;;;;7.68;7.18;;;;;;;;;;5075939;28;20040;-60
2022/04/28 01:57:30;;;;;;;7.72;7.00;;;;;;;;;;5073459;28;20028;-60
2022/04/28 01:59:58;;;;;;;8.38;7.78;;;;;;;;;;5074893;28;20020;-60
2022/04/28 02:02:24;;;;;;;7.90;7.40;;;;;;;;;;5073588;28;20497;-60
2022/04/28 02:04:50;;;;;;;7.65;7.15;;;;;;;;;;5074299;28;20032;-60
2022/04/28 02:07:15;;;;;;;9.95;9.30;;;;;;;;;;5076253;28;20448;-59
2022/04/28 02:09:42;;;;;;;8.52;7.93;;;;;;;;;;5075428;28;20447;-60
2022/04/28 02:12:08;;;;;;;8.75;8.15;;;;;;;;;;5079519;28;20032;-60
2022/04/28 02:14:34;;;;;;;9.38;8.77;;;;;;;;;;5075771;28;20062;-59
2022/04/28 02:16:59;;;;;;;8.02;7.32;;;;;;;;;;5074787;28;20592;-59
2022/04/28 02:19:24;;;;;;;10.73;10.02;;;;;;;;;;5072723;28;20117;-59
2022/04/28 02:21:50;;;;;;;8.75;8.15;;;;;;;;;;5073825;28;20039;-59
2022/04/28 02:24:15;;;;;;;9.70;9.10;;;;;;;;;;5077062;28;20460;-59
2022/04/28 02:26:41;;;;;;;10.98;10.27;;;;;;;;;;5074198;28;20493;-59
2022/04/28 02:29:06;;;;;;;11.18;10.38;;;;;;;;;;5073642;28;20481;-59
2022/04/28 02:31:32;;;;;;;8.73;8.13;;;;;;;;;;5077465;28;20036;-60
2022/04/28 02:33:57;;;;;;;9.13;8.52;;;;;;;;;;5074497;28;20486;-59
2022/04/28 02:36:24;;;;;;;8.27;7.75;;;;;;;;;;5075309;28;20043;-59
2022/04/28 02:38:50;;;;;;;9.13;8.50;;;;;;;;;;5074763;28;20027;-59
2022/04/28 02:41:20;;;;;;;8.90;8.30;;;;;;;;;;5074995;28;20154;-59
2022/04/28 02:43:46;;;;;;;11.35;10.65;;;;;;;;;;5072891;28;20052;-59
2022/04/28 02:46:11;;;;;;;10.50;9.80;;;;;;;;;;5073257;28;20093;-59
2022/04/28 02:48:37;;;;;;;9.63;8.93;;;;;;;;;;5075673;28;20628;-60
2022/04/28 02:51:03;;;;;;;9.00;8.30;;;;;;;;;;5075362;28;20622;-59
2022/04/28 02:53:28;;;;;;;8.90;8.30;;;;;;;;;;5064961;28;20066;-59
2022/04/28 02:55:53;;;;;;;9.88;9.18;;;;;;;;;;5072744;28;20024;-59
2022/04/28 02:58:19;;;;;;;10.05;9.35;;;;;;;;;;5072443;28;20035;-59
2022/04/28 03:00:44;;;;;;;8.07;7.47;;;;;;;;;;5074004;28;20181;-59
2022/04/28 03:03:10;;;;;;;8.23;7.55;;;;;;;;;;5071912;28;20042;-58
2022/04/28 03:11:04;;;;;;;7.65;7.07;;;;;;;;;;5071044;28;20034;-59
2022/04/28 03:13:32;;;;;;;7.18;6.68;;;;;;;;;;5077910;28;20371;-59
2022/04/28 03:15:57;;;;;;;9.57;8.80;;;;;;;;;;5077694;28;20020;-59
2022/04/28 03:18:22;;;;;;;9.43;8.80;;;;;;;;;;5073533;28;20604;-59
2022/04/28 03:20:48;;;;;;;8.50;7.90;;;;;;;;;;5075667;28;20035;-59
2022/04/28 03:23:14;;;;;;;9.35;8.75;;;;;;;;;;5075413;28;20083;-59
2022/04/28 03:25:40;;;;;;;8.38;7.78;;;;;;;;;;5071625;28;20590;-59
2022/04/28 03:28:06;;;;;;;9.27;8.68;;;;;;;;;;5074186;28;20016;-59
2022/04/28 03:30:31;;;;;;;8.95;8.32;;;;;;;;;;5072662;28;20036;-59
2022/04/28 03:32:57;;;;;;;9.10;8.50;;;;;;;;;;5071433;28;20035;-59
2022/04/28 03:35:22;;;;;;;9.32;8.60;;;;;;;;;;5071962;28;20039;-59
2022/04/28 03:37:48;;;;;;;8.07;7.57;;;;;;;;;;5076585;28;20024;-59
2022/04/28 03:40:14;;;;;;;7.50;6.90;;;;;;;;;;5074889;28;20027;-59
2022/04/28 03:42:40;;;;;;;7.28;6.65;;;;;;;;;;5071391;28;20032;-59
2022/04/28 03:45:06;;;;;;;7.57;6.88;;;;;;;;;;5074804;28;20039;-59
2022/04/28 03:47:32;;;;;;;6.88;6.30;;;;;;;;;;5075276;28;20031;-59
2022/04/28 03:49:58;;;;;;;6.20;5.70;;;;;;;;;;5071504;28;20024;-59
2022/04/28 03:52:23;;;;;;;5.00;4.55;;;;;;;;;;5081690;28;20365;-59
2022/04/28 03:54:49;;;;;;;8.02;7.43;;;;;;;;;;5074485;28;20043;-59
2022/04/28 03:57:14;;;;;;;5.32;4.93;;;;;;;;;;5073289;28;20028;-59
2022/04/28 03:59:39;;;;;;;5.40;5.00;;;;;;;;;;5075169;28;20482;-59
2022/04/28 04:02:05;;;;;;;6.55;6.05;;;;;;;;;;5071946;28;20056;-59
2022/04/28 04:04:30;;;;;;;6.45;5.95;;;;;;;;;;5072898;28;20032;-59
2022/04/28 04:06:55;;;;;;;5.60;5.13;;;;;;;;;;5073098;28;20086;-59
2022/04/28 04:09:21;;;;;;;6.38;5.85;;;;;;;;;;5070256;28;20085;-60
2022/04/28 04:11:46;;;;;;;5.85;5.43;;;;;;;;;;5074239;28;20472;-59
2022/04/28 04:14:11;;;;;;;6.45;5.95;;;;;;;;;;5074776;28;20500;-59
2022/04/28 04:16:37;;;;;;;7.15;6.60;;;;;;;;;;5072379;28;20714;-60
2022/04/28 04:19:03;;;;;;;6.38;5.88;;;;;;;;;;5070329;28;20036;-59
2022/04/28 04:21:28;;;;;;;6.85;6.35;;;;;;;;;;5072898;28;20035;-59
2022/04/28 04:23:54;;;;;;;7.55;6.93;;;;;;;;;;5076085;28;20105;-52
2022/04/28 04:26:19;;;;;;;8.60;7.50;;;;;;;;;;5074163;28;20369;-50
2022/04/28 04:28:44;;;;;;;6.80;6.25;;;;;;;;;;5080108;28;20104;-52
2022/04/28 04:33:54;;;;;;;8.65;6.75;;;;;;;;;;5074539;28;20155;-52
2022/04/28 04:36:20;;;;;;;6.85;6.35;;;;;;;;;;5078032;28;20086;-52
2022/04/28 04:38:45;;;;;;;7.75;7.05;;;;;;;;;;5076483;28;20652;-51
2022/04/28 04:41:11;;;;;;;6.32;5.65;;;;;;;;;;5077961;28;20180;-53
2022/04/28 04:43:38;;;;;;;6.20;5.70;;;;;;;;;;5078163;28;20033;-50
2022/04/28 04:46:03;;;;;;;5.78;5.38;;;;;;;;;;5077304;28;20029;-50
2022/04/28 04:48:30;;;;;;;7.72;7.13;;;;;;;;;;5075329;28;20043;-51
2022/04/28 04:50:56;;;;;;;7.13;6.63;;;;;;;;;;5077530;28;20020;-51
2022/04/28 04:53:22;;;;;;;6.82;6.28;;;;;;;;;;5076305;28;20173;-51
2022/04/28 04:55:47;;;;;;;6.43;5.93;;;;;;;;;;5078429;28;20073;-53
2022/04/28 04:58:13;;;;;;;6.97;6.38;;;;;;;;;;5072781;28;20046;-52
2022/04/28 05:00:38;;;;;;;8.65;7.85;;;;;;;;;;5077177;28;20343;-49
2022/04/28 05:03:03;;;;;;;6.70;6.20;;;;;;;;;;5075768;28;20074;-52
2022/04/28 05:05:29;;;;;;;6.88;6.38;;;;;;;;;;5075258;28;20032;-49
2022/04/28 05:07:54;;;;;;;7.70;6.82;;;;;;;;;;5074594;28;20021;-49
2022/04/28 05:10:19;;;;;;;6.60;6.10;;;;;;;;;;5078333;28;20060;-49
2022/04/28 05:12:45;;;;;;;7.13;6.57;;;;;;;;;;5076614;28;20032;-49
2022/04/28 05:15:11;;;;;;;7.28;6.68;;;;;;;;;;5075228;28;20043;-53
2022/04/28 05:17:37;;;;;;;7.53;6.88;;;;;;;;;;5075724;28;20024;-51
2022/04/28 05:20:04;;;;;;;6.50;6.00;;;;;;;;;;5076474;28;20055;-50
2022/04/28 05:22:29;;;;;;;7.50;7.00;;;;;;;;;;5075412;28;20031;-52
2022/04/28 05:24:55;;;;;;;10.07;6.72;;;;;;;;;;5076130;28;20028;-49
2022/04/28 05:27:20;;;;;;;6.72;6.22;;;;;;;;;;5076007;28;20077;-51
2022/04/28 05:29:45;;;;;;;8.25;7.65;;;;;;;;;;5076647;28;20720;-51
2022/04/28 05:32:11;;;;;;;11.05;7.07;;;;;;;;;;5078394;28;20484;-53
2022/04/28 05:34:36;;;;;;;7.75;7.18;;;;;;;;;;5078923;28;20024;-48
2022/04/28 05:37:02;;;;;;;7.50;6.97;;;;;;;;;;5073314;28;20477;-49
2022/04/28 05:39:28;;;;;;;7.45;6.90;;;;;;;;;;5076978;28;20480;-51
2022/04/28 05:41:55;;;;;;;7.32;6.82;;;;;;;;;;5074381;28;20758;-52
2022/04/28 05:47:05;;;;;;;7.88;7.28;;;;;;;;;;5073944;28;20420;-48
2022/04/28 05:49:31;;;;;;;7.55;6.95;;;;;;;;;;5077150;28;20048;-49
2022/04/28 05:51:57;;;;;;;7.82;7.22;;;;;;;;;;5075032;28;20029;-50
2022/04/28 05:54:23;;;;;;;9.93;9.15;;;;;;;;;;5076536;28;20579;-50
2022/04/28 05:56:48;;;;;;;10.00;9.30;;;;;;;;;;5074419;28;20036;-49
2022/04/28 05:59:14;;;;;;;10.75;10.05;;;;;;;;;;5074923;28;20584;-49
2022/04/28 06:01:39;;;;;;;11.30;10.30;;;;;;;;;;5079150;28;20024;-51
2022/04/28 06:04:06;;;;;;;11.23;10.40;;;;;;;;;;5074514;28;20032;-49
2022/04/28 06:06:32;;;;;;;11.95;11.13;;;;;;;;;;5078109;28;20066;-49
2022/04/28 06:08:57;;;;;;;13.48;12.57;;;;;;;;;;5076374;28;20052;-48
2022/04/28 06:11:22;;;;;;;15.40;14.32;;;;;;;;;;5079040;28;20043;-49
2022/04/28 06:13:48;;;;;;;13.93;13.02;;;;;;;;;;5078525;28;20039;-49
2022/04/28 06:16:13;;;;;;;13.60;12.80;;;;;;;;;;5073461;28;20028;-48
2022/04/28 06:18:39;;;;;;;16.63;15.18;;;;;;;;;;5075723;28;20032;-51
2022/04/28 06:21:04;;;;;;;15.45;14.55;;;;;;;;;;5075354;28;20035;-50
2022/04/28 06:23:30;;;;;;;16.02;15.00;;;;;;;;;;5075574;28;20620;-51
2022/04/28 06:25:55;;;;;;;14.95;14.05;;;;;;;;;;5076323;28;20028;-52
2022/04/28 06:28:20;;;;;;;15.70;14.75;;;;;;;;;;5074553;28;20036;-49
2022/04/28 06:30:46;;;;;;;14.48;13.57;;;;;;;;;;5076666;28;20044;-50
2022/04/28 06:33:11;;;;;;;11.48;10.70;;;;;;;;;;5075386;28;20558;-50
2022/04/28 06:35:37;;;;;;;15.43;14.43;;;;;;;;;;5073485;28;20067;-50
2022/04/28 06:38:03;;;;;;;11.80;10.85;;;;;;;;;;5076925;28;20024;-53
2022/04/28 06:40:30;;;;;;;11.98;11.07;;;;;;;;;;5075713;28;20025;-51
2022/04/28 06:42:55;;;;;;;13.90;13.00;;;;;;;;;;5072310;28;20036;-50
2022/04/28 06:45:21;;;;;;;10.43;9.73;;;;;;;;;;5073742;28;20035;-52
2022/04/28 06:47:47;;;;;;;9.38;8.60;;;;;;;;;;5076297;28;20076;-49
2022/04/28 06:50:13;;;;;;;12.73;11.82;;;;;;;;;;5077489;28;20078;-50
2022/04/28 06:52:39;;;;;;;9.73;9.07;;;;;;;;;;5075837;28;20040;-50
2022/04/28 06:55:06;;;;;;;7.80;7.20;;;;;;;;;;5074833;28;20028;-53
2022/04/28 06:57:32;;;;;;;9.18;8.48;;;;;;;;;;5072840;28;20489;-51
2022/04/28 06:59:57;;;;;;;6.97;6.47;;;;;;;;;;5078629;28;20039;-52
2022/04/28 07:02:23;;;;;;;6.78;6.25;;;;;;;;;;5076635;28;20316;-54
2022/04/28 07:04:49;;;;;;;8.88;8.07;;;;;;;;;;5073045;28;20036;-53
2022/04/28 07:07:14;;;;;;;10.68;9.85;;;;;;;;;;5070352;28;20040;-52
2022/04/28 07:09:41;;;;;;;9.95;9.15;;;;;;;;;;5070808;28;20115;-52
2022/04/28 07:12:06;;;;;;;7.93;7.32;;;;;;;;;;5077168;28;20116;-52
2022/04/28 07:14:34;;;;;;;6.68;6.18;;;;;;;;;;5077149;28;20466;-50
2022/04/28 07:16:59;;;;;;;6.70;6.20;;;;;;;;;;5074665;28;20024;-51
2022/04/28 07:19:24;;;;;;;9.30;8.60;;;;;;;;;;5075764;28;20166;-50
2022/04/28 07:21:51;;;;;;;8.25;7.65;;;;;;;;;;5079296;28;20023;-52
2022/04/28 07:24:16;;;;;;;9.45;8.48;;;;;;;;;;5074160;28;20542;-52
2022/04/28 07:26:41;;;;;;;16.52;15.48;;;;;;;;;;5072118;28;20021;-50
2022/04/28 07:29:07;;;;;;;13.23;12.32;;;;;;;;;;5074386;28;20151;-53
2022/04/28 07:31:32;;;;;;;7.80;7.20;;;;;;;;;;5078136;28;20020;-53
2022/04/28 07:33:58;;;;;;;12.25;11.38;;;;;;;;;;5070825;28;20036;-52
2022/04/28 07:36:23;;;;;;;12.85;11.98;;;;;;;;;;5068980;28;20740;-48
2022/04/28 07:38:49;;;;;;;16.73;15.73;;;;;;;;;;5070104;28;20040;-48
2022/04/28 07:41:15;;;;;;;17.55;16.55;;;;;;;;;;5070995;28;20028;-49
2022/04/28 07:43:41;;;;;;;10.27;9.57;;;;;;;;;;5068959;28;20035;-51
2022/04/28 07:46:06;;;;;;;29.95;28.25;;;;;;;;;;5070610;28;20079;-52
2022/04/28 07:48:32;;;;;;;12.75;11.73;;;;;;;;;;5072660;28;20121;-52
2022/04/28 07:50:57;;;;;;;7.88;7.28;;;;;;;;;;5075673;28;20062;-52
2022/04/28 07:53:23;;;;;;;36.17;34.20;;;;;;;;;;5073090;28;20036;-52
2022/04/28 07:56:10;;;;;;;34.67;32.70;;;;;;;;;;5069938;28;20184;-53
2022/04/28 07:58:34;;;;;;;39.92;37.83;;;;;;;;;;5071443;28;20032;-53
2022/04/28 08:01:00;;;;;;;26.25;24.77;;;;;;;;;;5069906;28;20032;-53
2022/04/28 08:03:26;;;;;;;44.47;42.17;;;;;;;;;;5070866;28;20027;-53
2022/04/28 08:05:53;;;;;;;34.15;32.33;;;;;;;;;;5070693;28;20028;-54
2022/04/28 08:08:19;;;;;;;42.47;40.22;;;;;;;;;;5072800;28;20028;-49
2022/04/28 08:10:44;;;;;;;29.58;27.98;;;;;;;;;;5075322;28;20415;-50
2022/04/28 08:13:09;;;;;;;22.25;21.00;;;;;;;;;;5073420;28;20465;-49
2022/04/28 08:15:35;;;;;;;21.20;19.95;;;;;;;;;;5073737;28;20781;-53
2022/04/28 08:18:00;;;;;;;38.58;36.58;;;;;;;;;;5072052;28;20066;-51
2022/04/28 08:20:26;;;;;;;30.17;28.58;;;;;;;;;;5072789;28;20094;-52
2022/04/28 08:22:51;;;;;;;34.22;32.42;;;;;;;;;;5074321;28;20033;-51
2022/04/28 08:25:17;;;;;;;15.07;14.18;;;;;;;;;;5069856;28;20028;-50
2022/04/28 08:27:42;;;;;;;33.00;31.23;;;;;;;;;;5072556;28;20040;-50
2022/04/28 08:30:08;;;;;;;21.60;20.42;;;;;;;;;;5074104;28;20046;-51
2022/04/28 08:32:34;;;;;;;26.67;25.17;;;;;;;;;;5072274;28;20040;-50
2022/04/28 08:34:59;;;;;;;25.30;23.90;;;;;;;;;;5071927;28;20373;-51
2022/04/28 08:37:25;;;;;;;24.25;22.85;;;;;;;;;;5072623;28;20028;-53
2022/04/28 08:39:50;;;;;;;27.23;25.80;;;;;;;;;;5072796;28;20020;-52
2022/04/28 08:42:21;;;;;;;22.75;21.45;;;;;;;;;;5069684;28;20040;-51
2022/04/28 08:44:46;;;;;;;26.55;24.70;;;;;;;;;;5075583;28;20043;-50
2022/04/28 08:47:13;;;;;;;19.90;18.70;;;;;;;;;;5070717;28;20032;-52
2022/04/28 08:49:42;;;;;;;21.23;20.00;;;;;;;;;;5073014;28;20068;-52
2022/04/28 08:52:08;;;;;;;13.60;12.80;;;;;;;;;;5071567;28;20042;-53
2022/04/28 08:54:36;;;;;;;16.13;15.23;;;;;;;;;;5075618;28;20369;-53
2022/04/28 08:57:02;;;;;;;19.75;18.65;;;;;;;;;;5073636;28;20028;-50
2022/04/28 08:59:27;;;;;;;14.52;13.63;;;;;;;;;;5072007;28;20486;-51
2022/04/28 09:01:53;;;;;;;18.90;17.80;;;;;;;;;;5072876;28;20033;-50
2022/04/28 09:04:19;;;;;;;19.23;18.13;;;;;;;;;;5070776;28;20494;-50
2022/04/28 09:06:48;;;;;;;29.60;28.00;;;;;;;;;;5074320;28;20509;-50
2022/04/28 09:09:16;;;;;;;17.52;16.45;;;;;;;;;;5073009;28;20370;-51
2022/04/28 09:11:43;;;;;;;16.88;15.88;;;;;;;;;;5073725;28;20042;-52
2022/04/28 09:14:13;;;;;;;31.45;29.75;;;;;;;;;;5077743;28;20129;-53
2022/04/28 09:16:52;;;;;;;14.93;14.10;;;;;;;;;;5080088;28;20542;-53
2022/04/28 09:19:28;;;;;;;38.25;36.25;;;;;;;;;;5074852;28;20040;-52
2022/04/28 09:22:00;;;;;;;33.97;32.20;;;;;;;;;;5076461;28;20105;-52
2022/04/28 09:24:27;;;;;;;45.45;43.03;;;;;;;;;;5076716;28;20590;-49
2022/04/28 09:26:54;;;;;;;50.25;47.70;;;;;;;;;;5074055;28;20044;-52
2022/04/28 09:29:21;;;;;;;25.23;23.83;;;;;;;;;;5081006;28;20777;-52
2022/04/28 09:31:49;;;;;;;17.63;16.63;;;;;;;;;;5077357;28;20035;-52
2022/04/28 09:34:17;;;;;;;19.92;18.77;;;;;;;;;;5078963;28;20036;-52
2022/04/28 09:36:43;;;;;;;16.48;15.52;;;;;;;;;;5073340;28;20036;-51
2022/04/28 09:39:13;;;;;;;12.77;11.98;;;;;;;;;;5075426;28;20028;-51
2022/04/28 09:44:24;;;;;;;17.77;16.77;;;;;;;;;;5077933;28;20046;-54
2022/04/28 09:46:50;;;;;;;18.33;17.33;;;;;;;;;;5076205;28;20119;-51
2022/04/28 09:49:19;;;;;;;16.75;15.77;;;;;;;;;;5076655;28;20071;-53
2022/04/28 09:51:46;;;;;;;19.50;17.70;;;;;;;;;;5076063;28;20043;-54
2022/04/28 09:54:13;;;;;;;24.23;22.83;;;;;;;;;;5077523;28;20055;-50
2022/04/28 09:56:41;;;;;;;22.98;21.75;;;;;;;;;;5075936;28;20056;-53
2022/04/28 09:59:09;;;;;;;17.17;16.20;;;;;;;;;;5079310;28;20028;-53
2022/04/28 10:01:37;;;;;;;23.60;22.30;;;;;;;;;;5077484;28;20092;-53
2022/04/28 10:04:06;;;;;;;18.63;17.52;;;;;;;;;;5072396;28;20028;-54
2022/04/28 10:06:34;;;;;;;23.08;21.77;;;;;;;;;;5074832;28;20078;-53
2022/04/28 10:09:04;;;;;;;20.02;18.92;;;;;;;;;;5079611;28;20062;-51
2022/04/28 10:11:30;;;;;;;20.48;19.38;;;;;;;;;;5073371;28;20058;-51
2022/04/28 10:13:57;;;;;;;18.38;17.38;;;;;;;;;;5073300;28;20036;-54
2022/04/28 10:16:24;;;;;;;19.58;18.48;;;;;;;;;;5072006;28;20547;-52
2022/04/28 10:19:05;;;;;;;26.83;25.33;;;;;;;;;;5072476;28;20024;-53
2022/04/28 10:21:58;;;;;;;26.73;25.30;;;;;;;;;;5077899;28;20036;-52
2022/04/28 10:33:04;;;;;;;23.00;21.63;;;;;;;;;;5070587;28;20016;-60
2022/04/28 10:35:33;;;;;;;22.25;21.05;;;;;;;;;;5079661;28;20032;-60
2022/04/28 10:38:21;;;;;;;19.50;18.42;;;;;;;;;;5076128;28;20576;-60
2022/04/28 10:41:07;;;;;;;24.00;22.70;;;;;;;;;;5074218;28;20097;-60
2022/04/28 10:43:32;;;;;;;20.05;18.95;;;;;;;;;;5072882;28;20032;-60
2022/04/28 10:46:22;;;;;;;28.08;26.45;;;;;;;;;;5071157;28;20058;-60
2022/04/28 10:48:53;;;;;;;30.90;29.30;;;;;;;;;;5072350;28;20054;-61
2022/04/28 10:51:22;;;;;;;31.45;29.80;;;;;;;;;;5055345;28;20084;-60
2022/04/28 10:54:12;;;;;;;25.83;24.42;;;;;;;;;;5054908;28;20021;-60
2022/04/28 10:56:40;;;;;;;34.20;32.42;;;;;;;;;;5054162;28;20033;-60
2022/04/28 10:59:34;;;;;;;31.08;29.38;;;;;;;;;;5054752;28;20036;-59
2022/04/28 11:02:15;;;;;;;32.85;31.15;;;;;;;;;;5056084;28;20359;-59
2022/04/28 11:05:03;;;;;;;21.92;20.73;;;;;;;;;;5050804;28;20056;-59
2022/04/28 11:07:30;;;;;;;24.30;23.00;;;;;;;;;;5052626;28;20112;-59
2022/04/28 11:10:04;;;;;;;37.92;35.92;;;;;;;;;;5054545;28;20021;-59
2022/04/28 11:12:35;;;;;;;43.80;41.60;;;;;;;;;;5050193;28;20033;-59
2022/04/28 11:15:05;;;;;;;17.17;16.15;;;;;;;;;;5052697;28;20056;-59
2022/04/28 11:17:33;;;;;;;16.08;15.18;;;;;;;;;;5059087;28;20020;-60
2022/04/28 11:20:06;;;;;;;21.63;19.98;;;;;;;;;;5055030;28;20060;-54
2022/04/28 11:22:32;;;;;;;32.72;30.98;;;;;;;;;;5051777;28;20033;-54
2022/04/28 11:24:57;;;;;;;34.13;32.38;;;;;;;;;;5058158;28;20461;-53
2022/04/28 11:27:24;;;;;;;25.30;23.90;;;;;;;;;;5053723;28;20033;-54
2022/04/28 11:29:58;;;;;;;46.28;43.88;;;;;;;;;;5054717;28;20028;-53
2022/04/28 11:32:24;;;;;;;36.45;34.55;;;;;;;;;;5057034;28;20028;-53
2022/04/28 11:34:52;;;;;;;30.80;29.17;;;;;;;;;;5053689;28;20044;-54
2022/04/28 11:37:22;;;;;;;28.80;27.30;;;;;;;;;;5052508;28;20114;-54
2022/04/28 11:39:51;;;;;;;41.47;39.38;;;;;;;;;;5052613;28;20103;-54
2022/04/28 11:42:18;;;;;;;35.15;33.33;;;;;;;;;;5055737;28;20119;-55
2022/04/28 11:44:51;;;;;;;33.92;32.13;;;;;;;;;;5052286;28;20067;-52
2022/04/28 11:47:17;;;;;;;37.45;35.50;;;;;;;;;;5051807;28;20540;-55
2022/04/28 11:49:43;;;;;;;39.60;37.55;;;;;;;;;;5053977;28;20644;-55
2022/04/28 11:52:26;;;;;;;32.13;30.42;;;;;;;;;;5063842;28;20028;-55
2022/04/28 11:54:57;;;;;;;39.53;37.40;;;;;;;;;;5050366;28;20040;-54
2022/04/28 11:57:23;;;;;;;45.75;43.40;;;;;;;;;;5052771;28;20117;-54
2022/04/28 11:59:49;;;;;;;37.35;35.42;;;;;;;;;;5050563;28;20074;-55
2022/04/28 12:02:32;;;;;;;40.10;37.97;;;;;;;;;;5050075;28;20116;-54
2022/04/28 12:05:00;;;;;;;40.92;38.83;;;;;;;;;;5049579;28;20421;-55
2022/04/28 12:07:34;;;;;;;21.50;20.33;;;;;;;;;;5050074;28;20129;-57
2022/04/28 12:15:31;;;;;;;43.38;41.10;;;;;;;;;;5050569;28;20124;-54
2022/04/28 12:20:59;;;;;;;24.15;22.88;;;;;;;;;;5053274;28;20059;-60
2022/04/28 12:23:33;;;;;;;17.73;16.73;;;;;;;;;;5051371;28;20451;-59
2022/04/28 12:26:06;;;;;;;17.20;16.20;;;;;;;;;;5052344;28;20172;-59
2022/04/28 12:28:42;;;;;;;17.73;16.73;;;;;;;;;;5052927;28;20032;-59
2022/04/28 12:31:13;;;;;;;17.08;16.08;;;;;;;;;;5051652;28;20037;-59
2022/04/28 12:33:39;;;;;;;14.93;14.02;;;;;;;;;;5054781;28;20033;-59
2022/04/28 12:36:06;;;;;;;16.70;15.80;;;;;;;;;;5050907;28;20029;-58
2022/04/28 12:38:36;;;;;;;18.63;17.58;;;;;;;;;;5061143;28;20086;-58
2022/04/28 12:41:16;;;;;;;16.70;15.75;;;;;;;;;;5050070;28;20056;-59
2022/04/28 12:43:50;;;;;;;16.10;15.20;;;;;;;;;;5055758;28;20436;-59
2022/04/28 12:46:34;;;;;;;17.45;16.45;;;;;;;;;;5051713;28;20072;-55
2022/04/28 12:49:01;;;;;;;16.25;15.35;;;;;;;;;;5052885;28;20040;-55
2022/04/28 12:51:27;;;;;;;20.63;19.50;;;;;;;;;;5057344;28;20039;-59
2022/04/28 12:54:09;;;;;;;21.02;19.88;;;;;;;;;;5055814;28;20029;-59
2022/04/28 12:56:34;;;;;;;21.92;20.67;;;;;;;;;;5053721;28;20132;-59
2022/04/28 12:59:03;;;;;;;22.02;20.83;;;;;;;;;;5059247;28;20625;-59
2022/04/28 13:01:29;;;;;;;21.75;20.55;;;;;;;;;;5055757;28;20528;-60
2022/04/28 13:03:58;;;;;;;22.63;21.33;;;;;;;;;;5056819;28;20066;-56
2022/04/28 13:06:29;;;;;;;25.58;24.20;;;;;;;;;;5059061;28;20021;-55
2022/04/28 13:08:57;;;;;;;25.60;24.13;;;;;;;;;;5055129;28;20671;-55
2022/04/28 13:11:28;;;;;;;30.08;28.50;;;;;;;;;;5058421;28;20029;-53
2022/04/28 13:13:54;;;;;;;37.00;35.08;;;;;;;;;;5056723;28;20024;-55
2022/04/28 13:16:20;;;;;;;67.78;62.72;;;;;;;;;;5054256;28;20056;-53
2022/04/28 13:18:46;;;;;;;41.50;39.35;;;;;;;;;;5054331;28;20024;-54
2022/04/28 13:21:12;;;;;;;40.78;38.67;;;;;;;;;;5056836;28;20043;-60
2022/04/28 13:23:41;;;;;;;29.70;28.15;;;;;;;;;;5054693;28;20029;-54
2022/04/28 13:26:08;;;;;;;40.92;38.80;;;;;;;;;;5057447;28;20054;-54
2022/04/28 13:28:34;;;;;;;29.73;28.13;;;;;;;;;;5054332;28;20047;-56
2022/04/28 13:31:00;;;;;;;27.67;26.25;;;;;;;;;;5053901;28;20020;-56
2022/04/28 13:33:25;;;;;;;39.53;37.42;;;;;;;;;;5053956;28;20033;-60
2022/04/28 13:35:50;;;;;;;38.05;36.08;;;;;;;;;;5050063;28;20035;-60
2022/04/28 13:38:16;;;;;;;42.20;40.03;;;;;;;;;;5054049;28;20044;-55
2022/04/28 13:40:42;;;;;;;66.70;63.30;;;;;;;;;;5051971;28;20056;-55
2022/04/28 13:43:08;;;;;;;31.58;29.90;;;;;;;;;;5052165;28;20472;-55
2022/04/28 13:45:33;;;;;;;31.23;29.55;;;;;;;;;;5055652;28;20489;-55
2022/04/28 13:47:59;;;;;;;31.48;29.83;;;;;;;;;;5052406;28;20025;-55
2022/04/28 13:50:25;;;;;;;31.58;29.85;;;;;;;;;;5058016;28;20640;-54
2022/04/28 13:52:50;;;;;;;29.13;27.58;;;;;;;;;;5053777;28;20066;-54
2022/04/28 13:55:16;;;;;;;57.83;54.85;;;;;;;;;;5055020;28;20032;-55
2022/04/28 13:57:42;;;;;;;31.33;29.63;;;;;;;;;;5054102;28;20028;-54
2022/04/28 14:00:09;;;;;;;37.45;35.50;;;;;;;;;;5053432;28;20119;-59
2022/04/28 14:02:34;;;;;;;39.35;37.35;;;;;;;;;;5058134;28;20086;-59
2022/04/28 14:04:59;;;;;;;36.58;34.67;;;;;;;;;;5057197;28;20016;-59
2022/04/28 14:07:25;;;;;;;34.38;32.58;;;;;;;;;;5052780;28;20587;-60
2022/04/28 14:09:51;;;;;;;37.55;35.58;;;;;;;;;;5054870;28;20110;-60
2022/04/28 14:12:16;;;;;;;54.30;51.35;;;;;;;;;;5050887;28;20036;-60
2022/04/28 14:14:42;;;;;;;51.90;49.25;;;;;;;;;;5051960;28;20052;-60
2022/04/28 14:17:07;;;;;;;69.57;66.03;;;;;;;;;;5050976;28;20036;-55
2022/04/28 14:19:33;;;;;;;138.27;131.40;;;;;;;;;;5051336;28;20028;-54
2022/04/28 14:22:01;;;;;;;35.28;33.40;;;;;;;;;;5056314;28;20078;-54
2022/04/28 14:24:27;;;;;;;38.67;36.58;;;;;;;;;;5052534;28;20033;-59
2022/04/28 14:26:52;;;;;;;41.83;39.70;;;;;;;;;;5054918;28;20841;-59
2022/04/28 14:29:18;;;;;;;42.95;40.75;;;;;;;;;;5052515;28;20039;-54
2022/04/28 14:31:44;;;;;;;45.53;43.22;;;;;;;;;;5051333;28;20025;-55
2022/04/28 14:34:09;;;;;;;123.40;117.22;;;;;;;;;;5057082;28;20035;-55
2022/04/28 14:36:35;;;;;;;53.30;50.55;;;;;;;;;;5052950;28;20575;-60
2022/04/28 14:39:01;;;;;;;54.60;51.80;;;;;;;;;;5049412;28;20087;-54
2022/04/28 14:41:26;;;;;;;127.43;121.05;;;;;;;;;;5052707;28;20094;-60
2022/04/28 14:43:51;;;;;;;43.25;41.03;;;;;;;;;;5052609;28;20446;-55
2022/04/28 14:46:17;;;;;;;62.83;59.63;;;;;;;;;;5054506;28;20064;-57
2022/04/28 14:54:10;;;;;;;104.95;99.65;;;;;;;;;;5055442;28;20447;-55
2022/04/28 14:56:35;;;;;;;149.77;142.32;;;;;;;;;;5056293;28;20052;-55
2022/04/28 14:59:01;;;;;;;117.50;111.60;;;;;;;;;;5052686;28;20102;-56
2022/04/28 15:01:26;;;;;;;176.10;167.43;;;;;;;;;;5055036;28;20025;-56
2022/04/28 15:03:51;;;;;;;195.13;185.70;;;;;;;;;;5051910;28;20494;-58
2022/04/28 15:06:17;;;;;;;179.70;170.80;;;;;;;;;;5053268;28;20033;-61
2022/04/28 15:08:42;;;;;;;197.10;187.45;;;;;;;;;;5054978;28;20035;-61